createdAt,value
2023-02-16T00:02:01.877Z,4.60
2023-02-16T00:04:31.667Z,4.51
2023-02-16T00:07:01.347Z,4.42
2023-02-16T00:09:29.672Z,4.47
2023-02-16T00:12:12.923Z,4.46
2023-02-16T00:14:41.652Z,4.48
2023-02-16T00:17:12.889Z,4.52
2023-02-16T00:19:43.092Z,4.38
2023-02-16T00:22:12.776Z,4.41
2023-02-16T00:24:41.132Z,3.94
2023-02-16T00:27:18.611Z,4.38
2023-02-16T00:29:46.933Z,4.24
2023-02-16T00:32:15.824Z,3.95
2023-02-16T00:34:44.932Z,4.19
2023-02-16T00:37:15.477Z,4.23
2023-02-16T00:39:45.199Z,4.13
2023-02-16T00:42:18.361Z,4.15
2023-02-16T00:44:48.489Z,4.26
2023-02-16T00:47:21.227Z,3.58
2023-02-16T00:49:50.670Z,3.88
2023-02-16T00:52:36.194Z,4.02
2023-02-16T00:55:08.103Z,4.06
2023-02-16T00:57:40.293Z,3.79
2023-02-16T01:00:15.150Z,4.41
2023-02-16T01:02:43.978Z,4.02
2023-02-16T01:05:13.241Z,3.97
2023-02-16T01:08:03.440Z,4.10
2023-02-16T01:10:49.170Z,3.96
2023-02-16T01:13:18.606Z,3.53
2023-02-16T01:15:47.198Z,3.91
2023-02-16T01:18:16.840Z,3.73
2023-02-16T01:20:45.897Z,3.79
2023-02-16T01:23:15.853Z,3.74
2023-02-16T01:25:44.256Z,3.01
2023-02-16T01:28:20.653Z,3.65
2023-02-16T01:30:49.131Z,3.63
2023-02-16T01:33:17.474Z,3.44
2023-02-16T01:35:46.478Z,3.53
2023-02-16T01:38:19.682Z,2.91
2023-02-16T01:40:55.249Z,3.21
2023-02-16T01:43:28.455Z,3.56
2023-02-16T01:46:02.829Z,3.52
2023-02-16T01:48:32.825Z,3.44
2023-02-16T01:51:08.460Z,3.56
2023-02-16T01:53:42.623Z,3.72
2023-02-16T01:56:21.432Z,3.19
2023-02-16T01:58:53.665Z,3.52
2023-02-16T02:01:49.660Z,3.45
2023-02-16T02:04:42.131Z,3.70
2023-02-16T02:07:20.649Z,3.67
2023-02-16T02:09:59.012Z,3.53
2023-02-16T02:12:34.092Z,3.40
2023-02-16T02:15:02.377Z,3.09
2023-02-16T02:17:30.702Z,3.62
2023-02-16T02:20:09.872Z,2.39
2023-02-16T02:23:31.582Z,2.84
2023-02-16T02:26:35.188Z,3.45
2023-02-16T02:29:17.330Z,3.60
2023-02-16T02:31:57.200Z,3.13
2023-02-16T02:34:35.344Z,3.03
2023-02-16T02:37:12.186Z,2.76
2023-02-16T02:39:52.837Z,3.14
2023-02-16T02:42:26.920Z,2.89
2023-02-16T02:45:00.527Z,3.13
2023-02-16T02:47:39.821Z,2.92
2023-02-16T02:50:38.591Z,3.05
2023-02-16T02:53:12.130Z,1.90
2023-02-16T02:56:02.556Z,2.58
2023-02-16T02:58:54.548Z,2.28
2023-02-16T03:01:25.554Z,2.43
2023-02-16T03:03:56.706Z,2.06
2023-02-16T03:06:28.917Z,2.31
2023-02-16T03:09:03.730Z,2.47
2023-02-16T03:11:49.677Z,2.35
2023-02-16T03:14:21.679Z,2.47
2023-02-16T03:17:13.300Z,2.27
2023-02-16T03:20:01.222Z,1.72
2023-02-16T03:22:48.144Z,1.81
2023-02-16T03:25:34.714Z,2.43
2023-02-16T03:28:23.699Z,2.19
2023-02-16T03:30:54.156Z,2.09
2023-02-16T03:33:25.130Z,2.28
2023-02-16T03:35:54.777Z,2.19
2023-02-16T03:38:25.974Z,2.27
2023-02-16T03:40:54.520Z,2.45
2023-02-16T03:43:26.294Z,2.41
2023-02-16T03:45:54.800Z,2.47
2023-02-16T03:48:24.590Z,2.38
2023-02-16T03:50:53.003Z,2.52
2023-02-16T03:53:21.266Z,1.87
2023-02-16T03:55:51.837Z,2.44
2023-02-16T03:58:22.040Z,2.19
2023-02-16T04:00:50.678Z,2.02
2023-02-16T04:03:19.162Z,2.06
2023-02-16T04:05:48.842Z,2.33
2023-02-16T04:08:17.208Z,2.39
2023-02-16T04:10:45.878Z,2.47
2023-02-16T04:13:13.171Z,2.33
2023-02-16T04:15:42.489Z,2.05
2023-02-16T04:18:10.933Z,2.75
2023-02-16T04:20:39.315Z,2.84
2023-02-16T04:23:09.297Z,2.45
2023-02-16T04:25:37.665Z,2.51
2023-02-16T04:28:05.873Z,2.72
2023-02-16T04:30:34.279Z,2.81
2023-02-16T04:33:02.684Z,2.72
2023-02-16T04:35:31.028Z,2.44
2023-02-16T04:37:59.313Z,1.64
2023-02-16T04:40:29.018Z,1.78
2023-02-16T04:42:57.271Z,1.50
2023-02-16T04:45:25.586Z,1.46
2023-02-16T04:47:55.578Z,1.40
2023-02-16T04:50:25.690Z,1.21
2023-02-16T04:52:56.622Z,1.39
2023-02-16T04:55:25.741Z,1.32
2023-02-16T04:57:55.412Z,1.48
2023-02-16T05:00:26.471Z,1.37
2023-02-16T05:02:54.853Z,0.93
2023-02-16T05:05:23.167Z,1.24
2023-02-16T05:07:51.431Z,1.24
2023-02-16T05:10:19.877Z,1.26
2023-02-16T05:13:05.646Z,1.24
2023-02-16T05:15:35.420Z,1.12
2023-02-16T05:18:06.044Z,1.05
2023-02-16T05:20:51.674Z,1.03
2023-02-16T05:23:20.074Z,1.05
2023-02-16T05:25:48.372Z,1.25
2023-02-16T05:28:16.796Z,0.98
2023-02-16T05:30:46.522Z,1.08
2023-02-16T05:33:14.953Z,1.08
2023-02-16T05:35:43.277Z,0.95
2023-02-16T05:38:14.391Z,0.75
2023-02-16T05:40:45.868Z,0.86
2023-02-16T05:43:14.063Z,0.92
2023-02-16T05:45:42.276Z,0.82
2023-02-16T05:48:12.010Z,0.70
2023-02-16T05:50:40.286Z,-0.19
2023-02-16T05:53:08.574Z,0.42
2023-02-16T05:55:39.874Z,0.54
2023-02-16T05:58:08.237Z,1.20
2023-02-16T06:00:36.769Z,1.72
2023-02-16T06:03:05.227Z,1.91
2023-02-16T06:05:35.370Z,1.73
2023-02-16T06:08:04.301Z,2.03
2023-02-16T06:10:32.522Z,2.37
2023-02-16T06:13:00.800Z,2.18
2023-02-16T06:15:29.367Z,2.55
2023-02-16T06:17:57.756Z,2.78
2023-02-16T06:20:28.698Z,3.00
2023-02-16T06:22:58.365Z,3.41
2023-02-16T06:25:26.725Z,3.22
2023-02-16T06:27:57.038Z,3.17
2023-02-16T06:30:28.298Z,3.34
2023-02-16T06:32:56.558Z,3.57
2023-02-16T06:35:24.866Z,4.23
2023-02-16T06:37:54.459Z,4.25
2023-02-16T06:40:25.898Z,4.35
2023-02-16T06:42:56.793Z,4.82
2023-02-16T06:45:25.059Z,4.79
2023-02-16T06:47:53.496Z,5.24
2023-02-16T06:50:21.798Z,6.25
2023-02-16T06:52:49.988Z,5.64
2023-02-16T06:55:18.457Z,5.51
2023-02-16T06:57:48.120Z,5.77
2023-02-16T07:00:17.963Z,6.13
2023-02-16T07:02:46.931Z,5.95
2023-02-16T07:05:15.726Z,6.79
2023-02-16T07:07:43.958Z,7.15
2023-02-16T07:10:12.592Z,7.42
2023-02-16T07:12:40.845Z,7.63
2023-02-16T07:15:11.178Z,7.79
2023-02-16T07:17:39.798Z,7.98
2023-02-16T07:20:09.332Z,8.17
2023-02-16T07:22:37.678Z,8.31
2023-02-16T07:25:06.312Z,8.62
2023-02-16T07:27:34.682Z,7.83
2023-02-16T07:30:02.965Z,8.36
2023-02-16T07:32:32.971Z,8.01
2023-02-16T07:35:01.227Z,8.25
2023-02-16T07:37:29.505Z,9.18
2023-02-16T07:39:57.858Z,8.93
2023-02-16T07:42:26.167Z,8.68
2023-02-16T07:44:54.454Z,9.34
2023-02-16T07:47:22.785Z,9.73
2023-02-16T07:49:52.903Z,9.62
2023-02-16T07:52:21.189Z,9.54
2023-02-16T07:54:49.580Z,11.04
2023-02-16T07:57:17.928Z,11.95
2023-02-16T07:59:46.309Z,12.58
2023-02-16T08:02:18.356Z,11.97
2023-02-16T08:04:46.759Z,11.84
2023-02-16T08:07:17.826Z,11.12
2023-02-16T08:09:46.318Z,12.45
2023-02-16T08:12:16.022Z,11.82
2023-02-16T08:14:44.995Z,12.02
2023-02-16T08:17:13.676Z,12.43
2023-02-16T08:19:42.249Z,12.52
2023-02-16T08:22:12.340Z,12.80
2023-02-16T08:24:42.110Z,14.08
2023-02-16T08:27:11.010Z,14.91
2023-02-16T08:29:39.258Z,15.31
2023-02-16T08:32:08.194Z,14.47
2023-02-16T08:34:36.884Z,13.26
2023-02-16T08:37:05.138Z,13.91
2023-02-16T08:39:35.285Z,14.96
2023-02-16T08:42:06.896Z,15.43
2023-02-16T08:44:35.276Z,14.72
2023-02-16T08:47:03.879Z,14.06
2023-02-16T08:49:33.204Z,14.09
2023-02-16T08:52:02.049Z,14.47
2023-02-16T08:54:33.562Z,14.17
2023-02-16T08:57:03.161Z,14.66
2023-02-16T08:59:33.457Z,14.78
2023-02-16T09:02:02.302Z,15.45
2023-02-16T09:04:31.326Z,15.10
2023-02-16T09:06:59.774Z,15.30
2023-02-16T09:09:28.822Z,15.11
2023-02-16T09:11:59.421Z,15.41
2023-02-16T09:14:28.109Z,15.77
2023-02-16T09:16:58.192Z,15.37
2023-02-16T09:19:26.589Z,15.46
2023-02-16T09:21:56.446Z,15.37
2023-02-16T09:24:25.409Z,16.14
2023-02-16T09:26:53.732Z,17.22
2023-02-16T09:29:22.306Z,16.69
2023-02-16T09:31:50.607Z,15.55
2023-02-16T09:34:22.820Z,16.73
2023-02-16T09:36:52.893Z,16.52
2023-02-16T09:39:21.688Z,16.85
2023-02-16T09:42:03.582Z,17.30
2023-02-16T09:44:43.485Z,17.58
2023-02-16T09:47:20.774Z,17.46
2023-02-16T09:49:51.349Z,18.21
2023-02-16T09:52:26.386Z,18.78
2023-02-16T09:54:57.764Z,18.63
2023-02-16T09:57:42.108Z,19.67
2023-02-16T10:00:22.351Z,19.10
2023-02-16T10:02:57.625Z,19.34
2023-02-16T10:05:32.662Z,19.48
2023-02-16T10:08:07.817Z,20.14
2023-02-16T10:10:42.032Z,20.12
2023-02-16T10:13:19.275Z,19.83
2023-02-16T10:15:54.003Z,19.42
2023-02-16T10:18:27.938Z,20.62
2023-02-16T10:21:02.557Z,21.84
2023-02-16T10:23:47.624Z,21.97
2023-02-16T10:26:21.541Z,21.07
2023-02-16T10:28:55.117Z,19.45
2023-02-16T10:31:33.668Z,18.84
2023-02-16T10:34:18.288Z,19.46
2023-02-16T10:37:04.116Z,20.41
2023-02-16T10:39:40.440Z,20.24
2023-02-16T10:42:19.160Z,21.10
2023-02-16T10:44:52.508Z,20.96
2023-02-16T10:47:33.473Z,20.89
2023-02-16T10:50:01.975Z,20.55
2023-02-16T10:52:35.744Z,21.46
2023-02-16T10:55:04.033Z,22.01
2023-02-16T10:57:34.065Z,21.49
2023-02-16T11:00:08.243Z,21.27
2023-02-16T11:02:39.343Z,22.54
2023-02-16T11:05:33.459Z,21.50
2023-02-16T11:08:03.952Z,21.48
2023-02-16T11:10:46.426Z,21.24
2023-02-16T11:13:31.577Z,23.73
2023-02-16T11:16:07.104Z,23.29
2023-02-16T11:18:38.508Z,23.08
2023-02-16T11:21:08.734Z,23.05
2023-02-16T11:23:40.630Z,23.46
2023-02-16T11:26:24.276Z,23.39
2023-02-16T11:28:52.800Z,21.88
2023-02-16T11:31:27.157Z,22.86
2023-02-16T11:34:02.935Z,23.52
2023-02-16T11:36:37.745Z,23.97
2023-02-16T11:39:16.007Z,22.38
2023-02-16T11:41:47.274Z,22.64
2023-02-16T11:44:27.481Z,21.69
2023-02-16T11:46:57.808Z,22.51
2023-02-16T11:49:34.524Z,21.66
2023-02-16T11:52:21.129Z,21.25
2023-02-16T11:54:57.684Z,22.32
2023-02-16T11:57:28.718Z,21.42
2023-02-16T11:59:58.459Z,20.55
2023-02-16T12:02:46.560Z,21.56
2023-02-16T12:05:27.226Z,23.41
2023-02-16T12:08:11.191Z,23.49
2023-02-16T12:10:52.808Z,22.33
2023-02-16T12:13:28.802Z,22.73
2023-02-16T12:16:04.677Z,22.05
2023-02-16T12:18:44.132Z,22.51
2023-02-16T12:21:21.160Z,22.20
2023-02-16T12:24:01.829Z,22.43
2023-02-16T12:26:49.011Z,23.09
2023-02-16T12:29:29.754Z,21.89
2023-02-16T12:32:13.898Z,23.12
2023-02-16T12:34:57.660Z,20.75
2023-02-16T12:37:35.290Z,21.63
2023-02-16T12:40:13.797Z,21.77
2023-02-16T12:42:57.690Z,22.76
2023-02-16T12:45:32.546Z,22.90
2023-02-16T12:48:27.512Z,22.42
2023-02-16T12:50:57.979Z,22.53
2023-02-16T12:53:30.486Z,23.54
2023-02-16T12:56:03.644Z,22.60
2023-02-16T12:58:37.629Z,22.53
2023-02-16T13:01:12.343Z,22.35
2023-02-16T13:03:46.547Z,22.72
2023-02-16T13:06:26.722Z,22.43
2023-02-16T13:09:03.755Z,22.60
2023-02-16T13:11:36.086Z,22.58
2023-02-16T13:14:13.096Z,23.19
2023-02-16T13:16:46.490Z,22.39
2023-02-16T13:19:16.613Z,22.71
2023-02-16T13:22:13.019Z,23.90
2023-02-16T13:24:52.941Z,22.73
2023-02-16T13:27:33.986Z,22.92
2023-02-16T13:30:23.043Z,23.54
2023-02-16T13:33:10.016Z,22.63
2023-02-16T13:36:11.247Z,22.50
2023-02-16T13:39:12.830Z,23.09
2023-02-16T13:42:12.019Z,21.56
2023-02-16T13:44:44.833Z,22.31
2023-02-16T13:47:18.360Z,21.65
2023-02-16T13:49:48.271Z,21.48
2023-02-16T13:52:31.220Z,21.72
2023-02-16T13:55:01.655Z,21.98
2023-02-16T13:58:01.808Z,22.28
2023-02-16T14:00:33.930Z,22.88
2023-02-16T14:03:09.328Z,21.89
2023-02-16T14:05:41.144Z,22.22
2023-02-16T14:08:24.483Z,23.82
2023-02-16T14:11:14.068Z,22.90
2023-02-16T14:13:49.067Z,23.41
2023-02-16T14:16:33.116Z,21.04
2023-02-16T14:19:05.945Z,21.30
2023-02-16T14:21:40.093Z,20.11
2023-02-16T14:24:14.497Z,19.60
2023-02-16T14:27:02.388Z,21.85
2023-02-16T14:29:36.364Z,21.50
2023-02-16T14:32:15.479Z,20.51
2023-02-16T14:34:56.130Z,21.26
2023-02-16T14:37:37.591Z,19.95
2023-02-16T14:40:18.848Z,20.78
2023-02-16T14:42:54.713Z,20.90
2023-02-16T14:45:44.527Z,20.70
2023-02-16T14:48:28.197Z,20.08
2023-02-16T14:51:18.541Z,19.00
2023-02-16T14:54:17.818Z,19.18
2023-02-16T14:56:50.957Z,17.42
2023-02-16T14:59:31.734Z,17.15
2023-02-16T15:02:00.517Z,16.67
2023-02-16T15:04:30.402Z,16.93
2023-02-16T15:07:03.904Z,15.91
2023-02-16T15:09:34.592Z,14.92
2023-02-16T15:12:24.592Z,14.67
2023-02-16T15:14:56.889Z,13.19
2023-02-16T15:17:35.800Z,13.29
2023-02-16T15:20:10.775Z,12.66
2023-02-16T15:22:44.804Z,11.90
2023-02-16T15:25:24.402Z,11.49
2023-02-16T15:27:59.232Z,11.28
2023-02-16T15:30:30.698Z,11.13
2023-02-16T15:33:01.591Z,11.16
2023-02-16T15:35:38.119Z,10.92
2023-02-16T15:38:22.241Z,11.22
2023-02-16T15:40:55.033Z,11.43
2023-02-16T15:43:32.102Z,10.86
2023-02-16T15:46:03.266Z,10.61
2023-02-16T15:48:33.714Z,10.17
2023-02-16T15:51:12.765Z,9.93
2023-02-16T15:53:48.501Z,9.70
2023-02-16T15:56:45.497Z,9.72
2023-02-16T15:59:32.064Z,9.58
2023-02-16T16:02:05.419Z,9.74
2023-02-16T16:04:38.809Z,9.31
2023-02-16T16:07:08.538Z,9.66
2023-02-16T16:09:39.595Z,9.97
2023-02-16T16:12:12.260Z,9.62
2023-02-16T16:14:43.657Z,9.85
2023-02-16T16:17:16.694Z,8.80
2023-02-16T16:19:45.083Z,10.05
2023-02-16T16:22:33.171Z,9.81
2023-02-16T16:25:03.544Z,9.82
2023-02-16T16:27:36.070Z,10.27
2023-02-16T16:30:27.623Z,9.88
2023-02-16T16:33:03.882Z,9.66
2023-02-16T16:35:38.078Z,9.71
2023-02-16T16:38:07.646Z,10.14
2023-02-16T16:40:38.433Z,9.79
2023-02-16T16:43:13.145Z,9.46
2023-02-16T16:45:43.513Z,9.69
2023-02-16T16:48:18.389Z,10.16
2023-02-16T16:50:47.834Z,10.48
2023-02-16T16:53:41.014Z,10.43
2023-02-16T16:56:13.390Z,9.59
2023-02-16T16:58:42.156Z,9.51
2023-02-16T17:01:13.630Z,9.78
2023-02-16T17:03:42.139Z,9.46
2023-02-16T17:06:10.522Z,9.03
2023-02-16T17:08:38.939Z,9.14
2023-02-16T17:11:09.514Z,8.79
2023-02-16T17:13:39.269Z,8.75
2023-02-16T17:16:13.600Z,9.09
2023-02-16T17:18:41.832Z,7.92
2023-02-16T17:21:13.479Z,7.97
2023-02-16T17:23:52.252Z,8.36
2023-02-16T17:26:21.045Z,8.74
2023-02-16T17:28:51.623Z,8.91
2023-02-16T17:31:19.968Z,9.05
2023-02-16T17:33:48.359Z,9.13
2023-02-16T17:36:17.481Z,8.39
2023-02-16T17:38:46.296Z,7.89
2023-02-16T17:41:20.525Z,7.38
2023-02-16T17:43:50.657Z,8.01
2023-02-16T17:46:20.133Z,8.14
2023-02-16T17:48:53.588Z,7.70
2023-02-16T17:51:23.999Z,7.58
2023-02-16T17:53:52.254Z,7.62
2023-02-16T17:56:22.922Z,7.90
2023-02-16T17:58:52.882Z,8.13
2023-02-16T18:01:23.037Z,7.47
2023-02-16T18:03:52.514Z,7.85
2023-02-16T18:06:26.383Z,7.71
2023-02-16T18:08:56.563Z,6.89
2023-02-16T18:11:24.959Z,7.25
2023-02-16T18:13:54.695Z,7.29
2023-02-16T18:16:27.955Z,7.10
2023-02-16T18:18:57.492Z,7.27
2023-02-16T18:21:25.876Z,6.87
2023-02-16T18:23:54.243Z,6.64
2023-02-16T18:26:23.908Z,6.80
2023-02-16T18:28:52.237Z,7.23
2023-02-16T18:31:22.089Z,7.23
2023-02-16T18:33:50.488Z,6.87
2023-02-16T18:36:18.839Z,6.90
2023-02-16T18:38:47.234Z,6.75
2023-02-16T18:41:15.512Z,6.74
2023-02-16T18:43:43.787Z,7.11
2023-02-16T18:46:12.765Z,6.53
2023-02-16T18:48:42.644Z,6.82
2023-02-16T18:51:12.529Z,7.03
2023-02-16T18:53:40.864Z,6.46
2023-02-16T18:56:11.507Z,6.72
2023-02-16T18:58:40.389Z,6.43
2023-02-16T19:01:16.225Z,6.03
2023-02-16T19:03:46.017Z,6.44
2023-02-16T19:06:14.494Z,6.36
2023-02-16T19:08:42.843Z,6.26
2023-02-16T19:11:11.120Z,6.47
2023-02-16T19:13:39.500Z,6.35
2023-02-16T19:16:08.636Z,6.50
2023-02-16T19:18:37.090Z,6.23
2023-02-16T19:21:08.180Z,6.56
2023-02-16T19:23:38.688Z,6.61
2023-02-16T19:26:08.760Z,6.18
2023-02-16T19:28:37.004Z,6.82
2023-02-16T19:31:07.098Z,6.88
2023-02-16T19:33:36.038Z,6.65
2023-02-16T19:36:08.688Z,6.73
2023-02-16T19:38:37.566Z,6.87
2023-02-16T19:41:10.678Z,6.33
2023-02-16T19:43:39.227Z,6.28
2023-02-16T19:46:07.872Z,6.16
2023-02-16T19:48:36.864Z,5.88
2023-02-16T19:51:09.213Z,5.99
2023-02-16T19:53:38.783Z,5.68
2023-02-16T19:56:08.233Z,6.02
2023-02-16T19:58:37.021Z,4.99
2023-02-16T20:01:08.435Z,5.40
2023-02-16T20:03:36.787Z,5.84
2023-02-16T20:06:16.799Z,6.01
2023-02-16T20:08:46.454Z,5.32
2023-02-16T20:11:15.707Z,6.11
2023-02-16T20:13:44.707Z,5.85
2023-02-16T20:16:14.416Z,6.20
2023-02-16T20:18:43.248Z,6.33
2023-02-16T20:21:16.006Z,5.80
2023-02-16T20:23:45.374Z,6.39
2023-02-16T20:26:15.661Z,5.95
2023-02-16T20:28:43.930Z,5.78
2023-02-16T20:31:14.811Z,5.30
2023-02-16T20:33:43.426Z,5.38
2023-02-16T20:36:12.528Z,5.53
2023-02-16T20:38:44.980Z,5.83
2023-02-16T20:41:16.357Z,5.88
2023-02-16T20:43:44.753Z,5.86
2023-02-16T20:46:15.083Z,5.68
2023-02-16T20:48:43.599Z,5.90
2023-02-16T20:51:14.185Z,5.95
2023-02-16T20:53:44.277Z,5.86
2023-02-16T20:56:15.610Z,5.74
2023-02-16T20:58:45.926Z,5.44
2023-02-16T21:01:15.795Z,5.75
2023-02-16T21:03:44.822Z,5.68
2023-02-16T21:06:13.158Z,5.70
2023-02-16T21:08:41.424Z,5.51
2023-02-16T21:11:11.358Z,5.52
2023-02-16T21:13:40.700Z,5.44
2023-02-16T21:16:10.077Z,5.42
2023-02-16T21:18:40.588Z,5.43
2023-02-16T21:21:09.894Z,5.37
2023-02-16T21:23:38.200Z,5.51
2023-02-16T21:26:07.264Z,5.36
2023-02-16T21:28:37.285Z,5.35
2023-02-16T21:31:09.056Z,5.10
2023-02-16T21:33:40.283Z,4.05
2023-02-16T21:36:10.251Z,4.92
2023-02-16T21:38:39.431Z,5.05
2023-02-16T21:41:28.887Z,5.38
2023-02-16T21:44:02.306Z,5.38
2023-02-16T21:46:33.466Z,5.45
2023-02-16T21:49:01.072Z,5.92
2023-02-16T21:51:31.860Z,5.66
2023-02-16T21:54:00.681Z,5.85
2023-02-16T21:56:35.305Z,5.83
2023-02-16T21:59:06.576Z,5.88
2023-02-16T22:01:37.042Z,5.21
2023-02-16T22:04:06.357Z,5.55
2023-02-16T22:06:36.873Z,5.60
2023-02-16T22:09:07.553Z,5.18
2023-02-16T22:11:35.861Z,5.31
2023-02-16T22:14:06.060Z,5.41
2023-02-16T22:16:36.944Z,5.27
2023-02-16T22:19:08.895Z,5.71
2023-02-16T22:21:38.498Z,5.70
2023-02-16T22:24:07.616Z,5.70
2023-02-16T22:26:37.146Z,5.62
2023-02-16T22:29:11.532Z,5.67
2023-02-16T22:31:40.083Z,5.70
2023-02-16T22:34:12.986Z,5.60
2023-02-16T22:36:41.318Z,4.47
2023-02-16T22:39:09.753Z,5.62
2023-02-16T22:41:38.107Z,5.62
2023-02-16T22:44:07.766Z,5.12
2023-02-16T22:46:37.165Z,3.68
2023-02-16T22:49:05.418Z,5.08
2023-02-16T22:51:33.648Z,4.93
2023-02-16T22:54:02.974Z,5.23
2023-02-16T22:56:32.057Z,5.42
2023-02-16T22:59:01.388Z,5.56
2023-02-16T23:01:32.470Z,5.17
2023-02-16T23:04:02.680Z,5.42
2023-02-16T23:06:32.970Z,4.97
2023-02-16T23:09:03.124Z,5.32
2023-02-16T23:11:31.725Z,5.24
2023-02-16T23:14:00.209Z,5.30
2023-02-16T23:16:30.595Z,5.20
2023-02-16T23:19:00.579Z,5.27
2023-02-16T23:21:30.787Z,5.23
2023-02-16T23:24:00.330Z,5.27
2023-02-16T23:26:31.299Z,5.13
2023-02-16T23:29:01.543Z,4.88
2023-02-16T23:31:34.497Z,4.54
2023-02-16T23:34:02.936Z,4.10
2023-02-16T23:36:31.385Z,4.00
2023-02-16T23:39:01.462Z,4.10
2023-02-16T23:41:29.868Z,3.98
2023-02-16T23:44:00.657Z,4.04
2023-02-16T23:46:29.360Z,4.03
2023-02-16T23:48:59.077Z,3.85
2023-02-16T23:51:28.041Z,3.91
2023-02-16T23:53:57.747Z,3.89
2023-02-16T23:56:28.310Z,3.76
2023-02-16T23:58:59.209Z,3.76
